sensor_id;sensor_type;location;lat;lon;timestamp;temperature;humidity
10314;DHT22;5202;49.138;10.090;2022-12-18T00:00:10;-6.70;99.90
10314;DHT22;5202;49.138;10.090;2022-12-18T00:02:39;-6.80;99.90
10314;DHT22;5202;49.138;10.090;2022-12-18T00:05:09;-7.00;99.90
10314;DHT22;5202;49.138;10.090;2022-12-18T00:07:37;-7.20;99.90
10314;DHT22;5202;49.138;10.090;2022-12-18T00:10:06;-7.10;99.90
10314;DHT22;5202;49.138;10.090;2022-12-18T00:12:35;-7.20;99.90
10314;DHT22;5202;49.138;10.090;2022-12-18T00:15:04;-7.20;99.90
10314;DHT22;5202;49.138;10.090;2022-12-18T00:17:33;-7.20;99.90
10314;DHT22;5202;49.138;10.090;2022-12-18T00:20:02;-7.00;99.90
10314;DHT22;5202;49.138;10.090;2022-12-18T00:22:32;-6.80;99.90
10314;DHT22;5202;49.138;10.090;2022-12-18T00:25:00;-6.70;99.90
10314;DHT22;5202;49.138;10.090;2022-12-18T00:27:28;-6.50;99.90
10314;DHT22;5202;49.138;10.090;2022-12-18T00:29:57;-6.40;99.90
10314;DHT22;5202;49.138;10.090;2022-12-18T00:32:26;-6.40;99.90
10314;DHT22;5202;49.138;10.090;2022-12-18T00:34:54;-6.40;99.90
10314;DHT22;5202;49.138;10.090;2022-12-18T00:37:23;-6.30;99.90
10314;DHT22;5202;49.138;10.090;2022-12-18T00:39:53;-6.20;99.90
10314;DHT22;5202;49.138;10.090;2022-12-18T00:42:21;-6.20;99.90
10314;DHT22;5202;49.138;10.090;2022-12-18T00:45:07;-6.20;99.90
10314;DHT22;5202;49.138;10.090;2022-12-18T00:47:39;-6.20;99.90
10314;DHT22;5202;49.138;10.090;2022-12-18T00:50:08;-6.20;99.90
10314;DHT22;5202;49.138;10.090;2022-12-18T00:52:37;-6.20;99.90
10314;DHT22;5202;49.138;10.090;2022-12-18T00:55:11;-6.20;99.90
10314;DHT22;5202;49.138;10.090;2022-12-18T00:57:39;-6.20;99.90
10314;DHT22;5202;49.138;10.090;2022-12-18T01:00:10;-6.20;99.90
10314;DHT22;5202;49.138;10.090;2022-12-18T01:02:41;-6.20;99.90
10314;DHT22;5202;49.138;10.090;2022-12-18T01:05:10;-6.20;99.90
10314;DHT22;5202;49.138;10.090;2022-12-18T01:07:41;-6.20;99.90
10314;DHT22;5202;49.138;10.090;2022-12-18T01:10:12;-6.30;99.90
10314;DHT22;5202;49.138;10.090;2022-12-18T01:12:41;-6.30;99.90
10314;DHT22;5202;49.138;10.090;2022-12-18T01:15:10;-6.30;99.90
10314;DHT22;5202;49.138;10.090;2022-12-18T01:17:40;-6.40;99.90
10314;DHT22;5202;49.138;10.090;2022-12-18T01:20:10;-6.40;99.90
10314;DHT22;5202;49.138;10.090;2022-12-18T01:22:39;-6.40;99.90
10314;DHT22;5202;49.138;10.090;2022-12-18T01:25:08;-6.50;99.90
10314;DHT22;5202;49.138;10.090;2022-12-18T01:27:38;-6.50;99.90
10314;DHT22;5202;49.138;10.090;2022-12-18T01:30:07;-6.50;99.90
10314;DHT22;5202;49.138;10.090;2022-12-18T01:32:36;-6.50;99.90
10314;DHT22;5202;49.138;10.090;2022-12-18T01:35:06;-6.60;99.90
10314;DHT22;5202;49.138;10.090;2022-12-18T01:37:35;-6.60;99.90
10314;DHT22;5202;49.138;10.090;2022-12-18T01:40:04;-6.60;99.90
10314;DHT22;5202;49.138;10.090;2022-12-18T01:42:33;-6.70;99.90
10314;DHT22;5202;49.138;10.090;2022-12-18T01:45:06;-6.70;99.90
10314;DHT22;5202;49.138;10.090;2022-12-18T01:47:51;-6.80;99.90
10314;DHT22;5202;49.138;10.090;2022-12-18T01:50:23;-6.80;99.90
10314;DHT22;5202;49.138;10.090;2022-12-18T01:52:55;-6.80;99.90
10314;DHT22;5202;49.138;10.090;2022-12-18T01:55:28;-6.70;99.90
10314;DHT22;5202;49.138;10.090;2022-12-18T01:57:59;-6.80;99.90
10314;DHT22;5202;49.138;10.090;2022-12-18T02:00:29;-6.80;99.90
10314;DHT22;5202;49.138;10.090;2022-12-18T02:02:58;-6.90;99.90
10314;DHT22;5202;49.138;10.090;2022-12-18T02:05:36;-6.90;99.90
10314;DHT22;5202;49.138;10.090;2022-12-18T02:08:14;-7.00;99.90
10314;DHT22;5202;49.138;10.090;2022-12-18T02:10:51;-7.00;99.90
10314;DHT22;5202;49.138;10.090;2022-12-18T02:13:30;-7.00;99.90
10314;DHT22;5202;49.138;10.090;2022-12-18T02:16:08;-7.00;99.90
10314;DHT22;5202;49.138;10.090;2022-12-18T02:18:46;-7.10;99.90
10314;DHT22;5202;49.138;10.090;2022-12-18T02:21:23;-7.20;99.90
10314;DHT22;5202;49.138;10.090;2022-12-18T02:24:00;-7.20;99.90
10314;DHT22;5202;49.138;10.090;2022-12-18T02:26:43;-7.20;99.90
10314;DHT22;5202;49.138;10.090;2022-12-18T02:29:16;-7.20;99.90
10314;DHT22;5202;49.138;10.090;2022-12-18T02:31:51;-7.20;99.90
10314;DHT22;5202;49.138;10.090;2022-12-18T02:34:23;-7.20;99.90
10314;DHT22;5202;49.138;10.090;2022-12-18T02:36:54;-7.30;99.90
10314;DHT22;5202;49.138;10.090;2022-12-18T02:39:25;-7.30;99.90
10314;DHT22;5202;49.138;10.090;2022-12-18T02:42:09;-7.20;99.90
10314;DHT22;5202;49.138;10.090;2022-12-18T02:44:43;-7.20;99.90
10314;DHT22;5202;49.138;10.090;2022-12-18T02:47:17;-7.20;99.90
10314;DHT22;5202;49.138;10.090;2022-12-18T02:49:55;-7.10;99.90
10314;DHT22;5202;49.138;10.090;2022-12-18T02:53:06;-7.10;99.90
10314;DHT22;5202;49.138;10.090;2022-12-18T02:55:49;-7.10;99.90
10314;DHT22;5202;49.138;10.090;2022-12-18T02:58:32;-7.20;99.90
10314;DHT22;5202;49.138;10.090;2022-12-18T03:01:13;-7.20;99.90
10314;DHT22;5202;49.138;10.090;2022-12-18T03:03:47;-7.20;99.90
10314;DHT22;5202;49.138;10.090;2022-12-18T03:06:24;-7.20;99.90
10314;DHT22;5202;49.138;10.090;2022-12-18T03:08:57;-7.20;99.90
10314;DHT22;5202;49.138;10.090;2022-12-18T03:11:31;-7.20;99.90
10314;DHT22;5202;49.138;10.090;2022-12-18T03:14:21;-7.10;99.90
10314;DHT22;5202;49.138;10.090;2022-12-18T03:16:54;-7.00;99.90
10314;DHT22;5202;49.138;10.090;2022-12-18T03:19:25;-7.00;99.90
10314;DHT22;5202;49.138;10.090;2022-12-18T03:22:01;-7.00;99.90
10314;DHT22;5202;49.138;10.090;2022-12-18T03:24:40;-7.00;99.90
10314;DHT22;5202;49.138;10.090;2022-12-18T03:27:13;-7.20;99.90
10314;DHT22;5202;49.138;10.090;2022-12-18T03:29:47;-7.20;99.90
10314;DHT22;5202;49.138;10.090;2022-12-18T03:32:25;-7.20;99.90
10314;DHT22;5202;49.138;10.090;2022-12-18T03:35:01;-7.20;99.90
10314;DHT22;5202;49.138;10.090;2022-12-18T03:37:35;-7.20;99.90
10314;DHT22;5202;49.138;10.090;2022-12-18T03:40:05;-7.20;99.90
10314;DHT22;5202;49.138;10.090;2022-12-18T03:42:41;-7.20;99.90
10314;DHT22;5202;49.138;10.090;2022-12-18T03:45:21;-7.30;99.90
10314;DHT22;5202;49.138;10.090;2022-12-18T03:47:59;-7.30;99.90
10314;DHT22;5202;49.138;10.090;2022-12-18T03:50:39;-7.30;99.90
10314;DHT22;5202;49.138;10.090;2022-12-18T03:53:25;-7.30;99.90
10314;DHT22;5202;49.138;10.090;2022-12-18T03:55:59;-7.30;99.90
10314;DHT22;5202;49.138;10.090;2022-12-18T03:58:50;-7.40;99.90
10314;DHT22;5202;49.138;10.090;2022-12-18T04:01:28;-7.50;99.90
10314;DHT22;5202;49.138;10.090;2022-12-18T04:04:00;-7.70;99.10
10314;DHT22;5202;49.138;10.090;2022-12-18T04:06:34;-7.80;99.60
10314;DHT22;5202;49.138;10.090;2022-12-18T04:09:04;-7.80;99.90
10314;DHT22;5202;49.138;10.090;2022-12-18T04:11:37;-7.80;99.90
10314;DHT22;5202;49.138;10.090;2022-12-18T04:14:06;-7.80;99.90
10314;DHT22;5202;49.138;10.090;2022-12-18T04:16:41;-7.70;99.90
10314;DHT22;5202;49.138;10.090;2022-12-18T04:19:13;-7.70;99.90
10314;DHT22;5202;49.138;10.090;2022-12-18T04:21:43;-7.70;99.90
10314;DHT22;5202;49.138;10.090;2022-12-18T04:24:13;-7.70;99.90
10314;DHT22;5202;49.138;10.090;2022-12-18T04:26:51;-7.70;99.90
10314;DHT22;5202;49.138;10.090;2022-12-18T04:29:25;-7.70;99.90
10314;DHT22;5202;49.138;10.090;2022-12-18T04:31:55;-7.70;99.90
10314;DHT22;5202;49.138;10.090;2022-12-18T04:34:26;-7.70;99.90
10314;DHT22;5202;49.138;10.090;2022-12-18T04:36:55;-7.70;99.90
10314;DHT22;5202;49.138;10.090;2022-12-18T04:39:24;-7.70;99.90
10314;DHT22;5202;49.138;10.090;2022-12-18T04:41:56;-7.70;99.90
10314;DHT22;5202;49.138;10.090;2022-12-18T04:44:24;-7.70;99.90
10314;DHT22;5202;49.138;10.090;2022-12-18T04:46:52;-7.70;99.90
10314;DHT22;5202;49.138;10.090;2022-12-18T04:49:23;-7.80;99.80
10314;DHT22;5202;49.138;10.090;2022-12-18T04:51:51;-7.90;99.90
10314;DHT22;5202;49.138;10.090;2022-12-18T04:54:20;-7.90;99.90
10314;DHT22;5202;49.138;10.090;2022-12-18T04:56:48;-7.90;99.90
10314;DHT22;5202;49.138;10.090;2022-12-18T04:59:16;-7.90;99.90
10314;DHT22;5202;49.138;10.090;2022-12-18T05:02:10;-7.80;99.90
10314;DHT22;5202;49.138;10.090;2022-12-18T05:04:43;-7.80;99.90
10314;DHT22;5202;49.138;10.090;2022-12-18T05:07:11;-7.70;99.90
10314;DHT22;5202;49.138;10.090;2022-12-18T05:09:39;-7.70;99.90
10314;DHT22;5202;49.138;10.090;2022-12-18T05:12:07;-7.70;99.90
10314;DHT22;5202;49.138;10.090;2022-12-18T05:14:36;-7.70;99.90
10314;DHT22;5202;49.138;10.090;2022-12-18T05:17:04;-7.60;99.90
10314;DHT22;5202;49.138;10.090;2022-12-18T05:19:32;-7.70;99.90
10314;DHT22;5202;49.138;10.090;2022-12-18T05:22:02;-7.60;99.90
10314;DHT22;5202;49.138;10.090;2022-12-18T05:24:30;-7.60;99.90
10314;DHT22;5202;49.138;10.090;2022-12-18T05:26:58;-7.50;99.90
10314;DHT22;5202;49.138;10.090;2022-12-18T05:29:27;-7.50;99.90
10314;DHT22;5202;49.138;10.090;2022-12-18T05:31:55;-7.50;99.90
10314;DHT22;5202;49.138;10.090;2022-12-18T05:34:23;-7.50;99.90
10314;DHT22;5202;49.138;10.090;2022-12-18T05:36:52;-7.40;99.90
10314;DHT22;5202;49.138;10.090;2022-12-18T05:39:21;-7.40;99.90
10314;DHT22;5202;49.138;10.090;2022-12-18T05:41:50;-7.40;99.90
10314;DHT22;5202;49.138;10.090;2022-12-18T05:44:18;-7.40;99.90
10314;DHT22;5202;49.138;10.090;2022-12-18T05:46:46;-7.40;99.90
10314;DHT22;5202;49.138;10.090;2022-12-18T05:49:15;-7.40;99.90
10314;DHT22;5202;49.138;10.090;2022-12-18T05:51:43;-7.40;99.90
10314;DHT22;5202;49.138;10.090;2022-12-18T05:54:11;-7.30;99.90
10314;DHT22;5202;49.138;10.090;2022-12-18T05:56:41;-7.20;99.90
10314;DHT22;5202;49.138;10.090;2022-12-18T05:59:14;-7.20;99.90
10314;DHT22;5202;49.138;10.090;2022-12-18T06:01:42;-7.20;99.90
10314;DHT22;5202;49.138;10.090;2022-12-18T06:04:11;-7.10;99.90
10314;DHT22;5202;49.138;10.090;2022-12-18T06:06:39;-7.10;99.90
10314;DHT22;5202;49.138;10.090;2022-12-18T06:09:08;-7.10;99.90
10314;DHT22;5202;49.138;10.090;2022-12-18T06:11:37;-7.10;99.90
10314;DHT22;5202;49.138;10.090;2022-12-18T06:14:06;-7.10;99.90
10314;DHT22;5202;49.138;10.090;2022-12-18T06:16:35;-7.10;99.90
10314;DHT22;5202;49.138;10.090;2022-12-18T06:19:05;-7.10;99.90
10314;DHT22;5202;49.138;10.090;2022-12-18T06:21:34;-7.10;99.90
10314;DHT22;5202;49.138;10.090;2022-12-18T06:24:02;-7.00;99.90
10314;DHT22;5202;49.138;10.090;2022-12-18T06:26:31;-6.90;99.90
10314;DHT22;5202;49.138;10.090;2022-12-18T06:29:00;-6.90;99.90
10314;DHT22;5202;49.138;10.090;2022-12-18T06:31:29;-6.90;99.90
10314;DHT22;5202;49.138;10.090;2022-12-18T06:33:58;-6.90;99.90
10314;DHT22;5202;49.138;10.090;2022-12-18T06:36:27;-6.80;99.90
10314;DHT22;5202;49.138;10.090;2022-12-18T06:38:58;-6.80;99.90
10314;DHT22;5202;49.138;10.090;2022-12-18T06:41:26;-6.80;99.90
10314;DHT22;5202;49.138;10.090;2022-12-18T06:43:55;-6.80;99.90
10314;DHT22;5202;49.138;10.090;2022-12-18T06:46:26;-6.80;99.90
10314;DHT22;5202;49.138;10.090;2022-12-18T06:48:55;-6.80;99.90
10314;DHT22;5202;49.138;10.090;2022-12-18T06:51:24;-6.70;99.90
10314;DHT22;5202;49.138;10.090;2022-12-18T06:53:53;-6.70;99.90
10314;DHT22;5202;49.138;10.090;2022-12-18T06:56:21;-6.60;99.90
10314;DHT22;5202;49.138;10.090;2022-12-18T06:58:53;-6.60;99.90
10314;DHT22;5202;49.138;10.090;2022-12-18T07:01:22;-6.60;99.90
10314;DHT22;5202;49.138;10.090;2022-12-18T07:04:02;-6.60;99.90
10314;DHT22;5202;49.138;10.090;2022-12-18T07:06:30;-6.50;99.90
10314;DHT22;5202;49.138;10.090;2022-12-18T07:08:58;-6.50;99.90
10314;DHT22;5202;49.138;10.090;2022-12-18T07:11:26;-6.50;99.90
10314;DHT22;5202;49.138;10.090;2022-12-18T07:13:55;-6.50;99.90
10314;DHT22;5202;49.138;10.090;2022-12-18T07:16:27;-6.50;99.90
10314;DHT22;5202;49.138;10.090;2022-12-18T07:18:56;-6.50;99.90
10314;DHT22;5202;49.138;10.090;2022-12-18T07:21:26;-6.50;99.90
10314;DHT22;5202;49.138;10.090;2022-12-18T07:23:54;-6.40;99.90
10314;DHT22;5202;49.138;10.090;2022-12-18T07:26:22;-6.40;99.90
10314;DHT22;5202;49.138;10.090;2022-12-18T07:28:50;-6.30;99.90
10314;DHT22;5202;49.138;10.090;2022-12-18T07:31:23;-6.30;99.90
10314;DHT22;5202;49.138;10.090;2022-12-18T07:33:52;-6.30;99.90
10314;DHT22;5202;49.138;10.090;2022-12-18T07:36:20;-6.30;99.90
10314;DHT22;5202;49.138;10.090;2022-12-18T07:38:50;-6.20;99.90
10314;DHT22;5202;49.138;10.090;2022-12-18T07:41:19;-6.20;99.90
10314;DHT22;5202;49.138;10.090;2022-12-18T07:43:48;-6.10;99.90
10314;DHT22;5202;49.138;10.090;2022-12-18T07:46:17;-6.10;99.90
10314;DHT22;5202;49.138;10.090;2022-12-18T07:48:45;-6.10;99.90
10314;DHT22;5202;49.138;10.090;2022-12-18T07:51:22;-6.10;99.90
10314;DHT22;5202;49.138;10.090;2022-12-18T07:53:52;-6.10;99.90
10314;DHT22;5202;49.138;10.090;2022-12-18T07:56:20;-6.00;99.90
10314;DHT22;5202;49.138;10.090;2022-12-18T07:58:55;-6.00;99.90
10314;DHT22;5202;49.138;10.090;2022-12-18T08:01:23;-6.00;99.90
10314;DHT22;5202;49.138;10.090;2022-12-18T08:03:52;-5.90;99.90
10314;DHT22;5202;49.138;10.090;2022-12-18T08:06:21;-5.90;99.90
10314;DHT22;5202;49.138;10.090;2022-12-18T08:08:52;-5.80;99.90
10314;DHT22;5202;49.138;10.090;2022-12-18T08:11:21;-5.80;99.90
10314;DHT22;5202;49.138;10.090;2022-12-18T08:13:50;-5.80;99.90
10314;DHT22;5202;49.138;10.090;2022-12-18T08:16:20;-5.80;99.90
10314;DHT22;5202;49.138;10.090;2022-12-18T08:18:50;-5.70;99.90
10314;DHT22;5202;49.138;10.090;2022-12-18T08:21:22;-5.70;99.90
10314;DHT22;5202;49.138;10.090;2022-12-18T08:23:56;-5.70;99.90
10314;DHT22;5202;49.138;10.090;2022-12-18T08:26:27;-5.60;99.90
10314;DHT22;5202;49.138;10.090;2022-12-18T08:28:58;-5.50;99.90
10314;DHT22;5202;49.138;10.090;2022-12-18T08:31:29;-5.40;99.90
10314;DHT22;5202;49.138;10.090;2022-12-18T08:33:58;-5.40;99.90
10314;DHT22;5202;49.138;10.090;2022-12-18T08:36:26;-5.40;99.90
10314;DHT22;5202;49.138;10.090;2022-12-18T08:38:56;-5.40;99.90
10314;DHT22;5202;49.138;10.090;2022-12-18T08:41:26;-5.40;99.90
10314;DHT22;5202;49.138;10.090;2022-12-18T08:43:54;-5.40;99.90
10314;DHT22;5202;49.138;10.090;2022-12-18T08:46:43;-5.30;99.90
10314;DHT22;5202;49.138;10.090;2022-12-18T08:49:12;-5.30;99.90
10314;DHT22;5202;49.138;10.090;2022-12-18T08:51:41;-5.20;99.90
10314;DHT22;5202;49.138;10.090;2022-12-18T08:54:11;-5.20;99.90
10314;DHT22;5202;49.138;10.090;2022-12-18T08:56:40;-5.20;99.90
10314;DHT22;5202;49.138;10.090;2022-12-18T08:59:08;-5.20;99.90
10314;DHT22;5202;49.138;10.090;2022-12-18T09:01:46;-5.20;99.90
10314;DHT22;5202;49.138;10.090;2022-12-18T09:04:18;-5.20;99.90
10314;DHT22;5202;49.138;10.090;2022-12-18T09:06:46;-5.20;99.90
10314;DHT22;5202;49.138;10.090;2022-12-18T09:09:16;-5.10;99.90
10314;DHT22;5202;49.138;10.090;2022-12-18T09:11:44;-5.10;99.90
10314;DHT22;5202;49.138;10.090;2022-12-18T09:14:12;-5.00;99.90
10314;DHT22;5202;49.138;10.090;2022-12-18T09:16:40;-4.90;99.90
10314;DHT22;5202;49.138;10.090;2022-12-18T09:19:10;-4.90;99.90
10314;DHT22;5202;49.138;10.090;2022-12-18T09:21:38;-4.80;99.90
10314;DHT22;5202;49.138;10.090;2022-12-18T09:24:14;-4.80;99.90
10314;DHT22;5202;49.138;10.090;2022-12-18T09:26:44;-4.90;99.90
10314;DHT22;5202;49.138;10.090;2022-12-18T09:29:13;-4.80;99.90
10314;DHT22;5202;49.138;10.090;2022-12-18T09:31:44;-4.80;99.90
10314;DHT22;5202;49.138;10.090;2022-12-18T09:34:13;-4.80;99.90
10314;DHT22;5202;49.138;10.090;2022-12-18T09:36:41;-4.80;99.90
10314;DHT22;5202;49.138;10.090;2022-12-18T09:39:10;-4.80;99.90
10314;DHT22;5202;49.138;10.090;2022-12-18T09:41:45;-4.80;99.90
10314;DHT22;5202;49.138;10.090;2022-12-18T09:44:23;-4.70;99.90
10314;DHT22;5202;49.138;10.090;2022-12-18T09:47:05;-4.70;99.90
10314;DHT22;5202;49.138;10.090;2022-12-18T09:49:39;-4.60;99.90
10314;DHT22;5202;49.138;10.090;2022-12-18T09:52:14;-4.60;99.90
10314;DHT22;5202;49.138;10.090;2022-12-18T09:54:50;-4.60;99.90
10314;DHT22;5202;49.138;10.090;2022-12-18T09:57:23;-4.50;99.90
10314;DHT22;5202;49.138;10.090;2022-12-18T09:59:55;-4.50;99.90
10314;DHT22;5202;49.138;10.090;2022-12-18T10:02:25;-4.40;99.90
10314;DHT22;5202;49.138;10.090;2022-12-18T10:05:13;-4.40;99.90
10314;DHT22;5202;49.138;10.090;2022-12-18T10:07:49;-4.30;99.90
10314;DHT22;5202;49.138;10.090;2022-12-18T10:10:30;-4.20;99.90
10314;DHT22;5202;49.138;10.090;2022-12-18T10:13:20;-4.10;99.90
10314;DHT22;5202;49.138;10.090;2022-12-18T10:16:01;-4.00;99.90
10314;DHT22;5202;49.138;10.090;2022-12-18T10:18:55;-4.00;99.90
10314;DHT22;5202;49.138;10.090;2022-12-18T10:21:32;-4.00;99.90
10314;DHT22;5202;49.138;10.090;2022-12-18T10:24:15;-4.00;99.90
10314;DHT22;5202;49.138;10.090;2022-12-18T10:26:47;-4.00;99.90
10314;DHT22;5202;49.138;10.090;2022-12-18T10:29:17;-4.10;99.90
10314;DHT22;5202;49.138;10.090;2022-12-18T10:31:45;-4.10;99.90
10314;DHT22;5202;49.138;10.090;2022-12-18T10:34:14;-4.20;99.90
10314;DHT22;5202;49.138;10.090;2022-12-18T10:36:42;-4.20;99.90
10314;DHT22;5202;49.138;10.090;2022-12-18T10:39:15;-4.20;99.90
10314;DHT22;5202;49.138;10.090;2022-12-18T10:41:44;-4.20;99.90
10314;DHT22;5202;49.138;10.090;2022-12-18T10:44:18;-4.20;99.90
10314;DHT22;5202;49.138;10.090;2022-12-18T10:46:49;-4.20;99.90
10314;DHT22;5202;49.138;10.090;2022-12-18T10:49:22;-4.20;99.90
10314;DHT22;5202;49.138;10.090;2022-12-18T10:52:05;-4.20;99.90
10314;DHT22;5202;49.138;10.090;2022-12-18T10:54:36;-4.10;99.90
10314;DHT22;5202;49.138;10.090;2022-12-18T10:57:15;-4.10;99.90
10314;DHT22;5202;49.138;10.090;2022-12-18T10:59:52;-4.10;99.90
10314;DHT22;5202;49.138;10.090;2022-12-18T11:02:33;-4.10;99.90
10314;DHT22;5202;49.138;10.090;2022-12-18T11:05:23;-4.10;99.90
10314;DHT22;5202;49.138;10.090;2022-12-18T11:07:56;-4.20;99.90
10314;DHT22;5202;49.138;10.090;2022-12-18T11:10:29;-4.20;99.90
10314;DHT22;5202;49.138;10.090;2022-12-18T11:13:16;-4.20;99.90
10314;DHT22;5202;49.138;10.090;2022-12-18T11:15:48;-4.20;99.90
10314;DHT22;5202;49.138;10.090;2022-12-18T11:18:19;-4.10;99.90
10314;DHT22;5202;49.138;10.090;2022-12-18T11:20:53;-4.00;99.90
10314;DHT22;5202;49.138;10.090;2022-12-18T11:23:25;-4.00;99.90
10314;DHT22;5202;49.138;10.090;2022-12-18T11:25:56;-3.90;99.90
10314;DHT22;5202;49.138;10.090;2022-12-18T11:28:34;-3.90;99.90
10314;DHT22;5202;49.138;10.090;2022-12-18T11:31:17;-3.80;99.90
10314;DHT22;5202;49.138;10.090;2022-12-18T11:34:00;-3.80;99.90
10314;DHT22;5202;49.138;10.090;2022-12-18T11:36:51;-3.70;99.90
10314;DHT22;5202;49.138;10.090;2022-12-18T11:39:27;-3.70;99.90
10314;DHT22;5202;49.138;10.090;2022-12-18T11:42:04;-3.70;99.90
10314;DHT22;5202;49.138;10.090;2022-12-18T11:44:42;-3.80;99.90
10314;DHT22;5202;49.138;10.090;2022-12-18T11:47:24;-3.80;99.90
10314;DHT22;5202;49.138;10.090;2022-12-18T11:50:00;-3.80;99.90
10314;DHT22;5202;49.138;10.090;2022-12-18T11:52:33;-3.80;99.90
10314;DHT22;5202;49.138;10.090;2022-12-18T11:55:11;-3.70;99.90
10314;DHT22;5202;49.138;10.090;2022-12-18T11:57:48;-3.70;99.90
10314;DHT22;5202;49.138;10.090;2022-12-18T12:00:22;-3.60;99.90
10314;DHT22;5202;49.138;10.090;2022-12-18T12:03:12;-3.60;99.90
10314;DHT22;5202;49.138;10.090;2022-12-18T12:05:58;-3.60;99.90
10314;DHT22;5202;49.138;10.090;2022-12-18T12:08:41;-3.60;99.90
10314;DHT22;5202;49.138;10.090;2022-12-18T12:11:20;-3.60;99.90
10314;DHT22;5202;49.138;10.090;2022-12-18T12:14:01;-3.50;99.90
10314;DHT22;5202;49.138;10.090;2022-12-18T12:16:39;-3.50;99.90
10314;DHT22;5202;49.138;10.090;2022-12-18T12:19:24;-3.40;99.90
10314;DHT22;5202;49.138;10.090;2022-12-18T12:22:05;-3.40;99.90
10314;DHT22;5202;49.138;10.090;2022-12-18T12:24:48;-3.50;99.90
10314;DHT22;5202;49.138;10.090;2022-12-18T12:27:28;-3.50;99.90
10314;DHT22;5202;49.138;10.090;2022-12-18T12:30:16;-3.50;99.90
10314;DHT22;5202;49.138;10.090;2022-12-18T12:33:01;-3.50;99.90
10314;DHT22;5202;49.138;10.090;2022-12-18T12:35:44;-3.50;99.90
10314;DHT22;5202;49.138;10.090;2022-12-18T12:38:21;-3.50;99.90
10314;DHT22;5202;49.138;10.090;2022-12-18T12:40:56;-3.50;99.90
10314;DHT22;5202;49.138;10.090;2022-12-18T12:43:35;-3.60;99.90
10314;DHT22;5202;49.138;10.090;2022-12-18T12:46:17;-3.70;99.90
10314;DHT22;5202;49.138;10.090;2022-12-18T12:48:49;-3.60;99.90
10314;DHT22;5202;49.138;10.090;2022-12-18T12:51:22;-3.60;99.90
10314;DHT22;5202;49.138;10.090;2022-12-18T12:53:55;-3.50;99.90
10314;DHT22;5202;49.138;10.090;2022-12-18T12:56:34;-3.50;99.90
10314;DHT22;5202;49.138;10.090;2022-12-18T12:59:12;-3.60;99.90
10314;DHT22;5202;49.138;10.090;2022-12-18T13:02:10;-3.60;99.90
10314;DHT22;5202;49.138;10.090;2022-12-18T13:04:49;-3.70;99.90
10314;DHT22;5202;49.138;10.090;2022-12-18T13:07:34;-3.70;99.90
10314;DHT22;5202;49.138;10.090;2022-12-18T13:10:31;-3.70;99.90
10314;DHT22;5202;49.138;10.090;2022-12-18T13:13:03;-3.70;99.90
10314;DHT22;5202;49.138;10.090;2022-12-18T13:15:37;-3.70;99.90
10314;DHT22;5202;49.138;10.090;2022-12-18T13:18:16;-3.60;99.90
10314;DHT22;5202;49.138;10.090;2022-12-18T13:20:49;-3.60;99.90
10314;DHT22;5202;49.138;10.090;2022-12-18T13:23:32;-3.60;99.90
10314;DHT22;5202;49.138;10.090;2022-12-18T13:26:29;-3.50;99.90
10314;DHT22;5202;49.138;10.090;2022-12-18T13:29:02;-3.60;99.90
10314;DHT22;5202;49.138;10.090;2022-12-18T13:34:29;-3.70;99.90
10314;DHT22;5202;49.138;10.090;2022-12-18T13:37:39;-3.80;99.90
10314;DHT22;5202;49.138;10.090;2022-12-18T13:43:35;-3.80;99.90
10314;DHT22;5202;49.138;10.090;2022-12-18T13:46:23;-3.80;99.90
10314;DHT22;5202;49.138;10.090;2022-12-18T13:48:56;-3.80;99.90
10314;DHT22;5202;49.138;10.090;2022-12-18T13:51:26;-3.70;99.90
10314;DHT22;5202;49.138;10.090;2022-12-18T13:53:58;-3.70;99.90
10314;DHT22;5202;49.138;10.090;2022-12-18T13:56:31;-3.60;99.90
10314;DHT22;5202;49.138;10.090;2022-12-18T13:59:11;-3.60;99.90
10314;DHT22;5202;49.138;10.090;2022-12-18T14:01:43;-3.60;99.90
10314;DHT22;5202;49.138;10.090;2022-12-18T14:04:20;-3.60;99.90
10314;DHT22;5202;49.138;10.090;2022-12-18T14:06:54;-3.60;99.90
10314;DHT22;5202;49.138;10.090;2022-12-18T14:09:27;-3.70;99.90
10314;DHT22;5202;49.138;10.090;2022-12-18T14:11:59;-3.70;99.90
10314;DHT22;5202;49.138;10.090;2022-12-18T14:14:48;-3.80;99.90
10314;DHT22;5202;49.138;10.090;2022-12-18T14:17:23;-3.80;99.90
10314;DHT22;5202;49.138;10.090;2022-12-18T14:19:52;-3.80;99.90
10314;DHT22;5202;49.138;10.090;2022-12-18T14:22:23;-3.80;99.90
10314;DHT22;5202;49.138;10.090;2022-12-18T14:25:13;-3.80;99.90
10314;DHT22;5202;49.138;10.090;2022-12-18T14:27:46;-3.80;99.90
10314;DHT22;5202;49.138;10.090;2022-12-18T14:30:27;-3.90;99.90
10314;DHT22;5202;49.138;10.090;2022-12-18T14:33:01;-3.80;99.90
10314;DHT22;5202;49.138;10.090;2022-12-18T14:35:30;-3.90;99.90
10314;DHT22;5202;49.138;10.090;2022-12-18T14:38:20;-3.90;99.90
10314;DHT22;5202;49.138;10.090;2022-12-18T14:40:54;-3.90;99.90
10314;DHT22;5202;49.138;10.090;2022-12-18T14:43:26;-4.00;99.90
10314;DHT22;5202;49.138;10.090;2022-12-18T14:45:56;-4.00;99.90
10314;DHT22;5202;49.138;10.090;2022-12-18T14:48:34;-4.10;99.90
10314;DHT22;5202;49.138;10.090;2022-12-18T14:51:06;-4.10;99.90
10314;DHT22;5202;49.138;10.090;2022-12-18T14:53:43;-4.10;99.90
10314;DHT22;5202;49.138;10.090;2022-12-18T14:56:21;-4.10;99.90
10314;DHT22;5202;49.138;10.090;2022-12-18T14:58:54;-4.10;99.90
10314;DHT22;5202;49.138;10.090;2022-12-18T15:01:26;-4.10;99.90
10314;DHT22;5202;49.138;10.090;2022-12-18T15:03:57;-4.20;99.90
10314;DHT22;5202;49.138;10.090;2022-12-18T15:07:14;-4.20;99.90
10314;DHT22;5202;49.138;10.090;2022-12-18T15:10:01;-4.20;99.90
10314;DHT22;5202;49.138;10.090;2022-12-18T15:12:34;-4.20;99.90
10314;DHT22;5202;49.138;10.090;2022-12-18T15:18:13;-4.10;99.90
10314;DHT22;5202;49.138;10.090;2022-12-18T15:20:46;-4.10;99.90
10314;DHT22;5202;49.138;10.090;2022-12-18T15:23:18;-4.10;99.90
10314;DHT22;5202;49.138;10.090;2022-12-18T15:25:55;-4.00;99.90
10314;DHT22;5202;49.138;10.090;2022-12-18T15:28:26;-4.10;99.90
10314;DHT22;5202;49.138;10.090;2022-12-18T15:31:03;-4.10;99.90
10314;DHT22;5202;49.138;10.090;2022-12-18T15:33:36;-4.10;99.90
10314;DHT22;5202;49.138;10.090;2022-12-18T15:36:10;-4.20;99.90
10314;DHT22;5202;49.138;10.090;2022-12-18T15:38:39;-4.30;99.90
10314;DHT22;5202;49.138;10.090;2022-12-18T15:41:12;-4.30;99.90
10314;DHT22;5202;49.138;10.090;2022-12-18T15:43:48;-4.30;99.90
10314;DHT22;5202;49.138;10.090;2022-12-18T15:46:19;-4.30;99.90
10314;DHT22;5202;49.138;10.090;2022-12-18T15:48:50;-4.30;99.90
10314;DHT22;5202;49.138;10.090;2022-12-18T15:51:28;-4.30;99.90
10314;DHT22;5202;49.138;10.090;2022-12-18T15:54:02;-4.30;99.90
10314;DHT22;5202;49.138;10.090;2022-12-18T15:56:31;-4.40;99.90
10314;DHT22;5202;49.138;10.090;2022-12-18T15:59:19;-4.30;99.90
10314;DHT22;5202;49.138;10.090;2022-12-18T16:01:51;-4.30;99.90
10314;DHT22;5202;49.138;10.090;2022-12-18T16:04:21;-4.30;99.90
10314;DHT22;5202;49.138;10.090;2022-12-18T16:06:51;-4.40;99.90
10314;DHT22;5202;49.138;10.090;2022-12-18T16:09:39;-4.40;99.90
10314;DHT22;5202;49.138;10.090;2022-12-18T16:12:15;-4.40;99.90
10314;DHT22;5202;49.138;10.090;2022-12-18T16:14:45;-4.40;99.90
10314;DHT22;5202;49.138;10.090;2022-12-18T16:17:15;-4.30;99.90
10314;DHT22;5202;49.138;10.090;2022-12-18T16:19:43;-4.30;99.90